createdAt,value
2023-02-01T00:02:12.010Z,8.93
2023-02-01T00:04:38.516Z,10.25
2023-02-01T00:07:05.032Z,5.55
2023-02-01T00:09:31.615Z,4.40
2023-02-01T00:12:00.443Z,6.05
2023-02-01T00:14:26.960Z,3.90
2023-02-01T00:16:53.453Z,5.22
2023-02-01T00:19:19.950Z,4.85
2023-02-01T00:21:46.606Z,6.28
2023-02-01T00:24:13.413Z,6.15
2023-02-01T00:26:41.322Z,4.78
2023-02-01T00:29:10.240Z,5.38
2023-02-01T00:31:36.964Z,6.45
2023-02-01T00:34:03.577Z,6.38
2023-02-01T00:36:30.998Z,8.68
2023-02-01T00:38:57.476Z,2.40
2023-02-01T00:41:24.467Z,8.02
2023-02-01T00:43:51.611Z,3.47
2023-02-01T00:46:19.133Z,2.85
2023-02-01T00:48:45.759Z,3.13
2023-02-01T00:51:22.527Z,2.50
2023-02-01T00:53:49.105Z,2.03
2023-02-01T00:56:15.604Z,4.25
2023-02-01T00:58:45.310Z,3.78
2023-02-01T01:01:12.255Z,4.28
2023-02-01T01:03:40.132Z,2.88
2023-02-01T01:06:07.725Z,2.05
2023-02-01T01:08:34.649Z,5.47
2023-02-01T01:11:05.344Z,3.15
2023-02-01T01:13:31.801Z,4.55
2023-02-01T01:16:02.586Z,5.10
2023-02-01T01:18:29.526Z,2.17
2023-02-01T01:20:56.289Z,7.18
2023-02-01T01:23:22.793Z,3.60
2023-02-01T01:25:49.321Z,5.88
2023-02-01T01:28:15.808Z,3.78
2023-02-01T01:30:42.311Z,3.42
2023-02-01T01:33:08.907Z,4.65
2023-02-01T01:35:35.598Z,6.03
2023-02-01T01:38:02.888Z,6.03
2023-02-01T01:40:30.183Z,6.57
2023-02-01T01:42:58.651Z,3.78
2023-02-01T01:45:29.613Z,4.88
2023-02-01T01:48:25.286Z,4.75
2023-02-01T01:50:55.868Z,4.05
2023-02-01T01:53:25.227Z,3.38
2023-02-01T01:55:52.277Z,4.35
2023-02-01T01:58:20.071Z,10.80
2023-02-01T02:00:47.488Z,7.65
2023-02-01T02:03:24.809Z,3.67
2023-02-01T02:05:52.374Z,8.02
2023-02-01T02:08:21.339Z,10.93
2023-02-01T02:11:01.960Z,4.13
2023-02-01T02:13:30.744Z,7.50
2023-02-01T02:16:06.380Z,3.85
2023-02-01T02:18:41.784Z,8.60
2023-02-01T02:21:14.198Z,8.80
2023-02-01T02:23:54.563Z,2.60
2023-02-01T02:26:35.226Z,1.13
2023-02-01T02:29:16.285Z,4.22
2023-02-01T02:31:51.881Z,2.72
2023-02-01T02:34:18.321Z,0.80
2023-02-01T02:36:52.830Z,3.08
2023-02-01T02:39:25.769Z,2.35
2023-02-01T02:42:19.968Z,0.55
2023-02-01T02:45:21.524Z,0.90
2023-02-01T02:47:56.882Z,2.50
2023-02-01T02:51:01.623Z,7.07
2023-02-01T02:53:56.694Z,5.35
2023-02-01T02:56:43.441Z,4.32
2023-02-01T02:59:30.855Z,2.78
2023-02-01T03:02:16.036Z,3.63
2023-02-01T03:04:43.449Z,3.42
2023-02-01T03:07:36.045Z,5.70
2023-02-01T03:10:08.861Z,5.55
2023-02-01T03:12:56.391Z,4.47
2023-02-01T03:15:43.122Z,2.28
2023-02-01T03:18:17.929Z,7.07
2023-02-01T03:20:47.838Z,2.65
2023-02-01T03:23:16.912Z,4.25
2023-02-01T03:25:43.421Z,2.75
2023-02-01T03:28:10.940Z,1.58
2023-02-01T03:30:38.897Z,4.57
2023-02-01T03:33:14.719Z,2.75
2023-02-01T03:35:49.932Z,3.97
2023-02-01T03:38:22.161Z,3.65
2023-02-01T03:40:53.149Z,3.03
2023-02-01T03:43:20.630Z,3.92
2023-02-01T03:45:50.769Z,1.40
2023-02-01T03:48:18.190Z,3.72
2023-02-01T03:50:47.432Z,2.67
2023-02-01T03:53:17.579Z,2.03
2023-02-01T03:55:44.418Z,1.80
2023-02-01T03:58:13.594Z,4.00
2023-02-01T04:00:40.452Z,2.80
2023-02-01T04:03:07.815Z,3.80
2023-02-01T04:05:34.832Z,0.88
2023-02-01T04:08:01.323Z,0.85
2023-02-01T04:10:28.031Z,1.75
2023-02-01T04:12:54.548Z,3.00
2023-02-01T04:15:21.068Z,2.15
2023-02-01T04:17:47.586Z,0.50
2023-02-01T04:20:14.142Z,0.88
2023-02-01T04:22:40.606Z,2.10
2023-02-01T04:25:07.483Z,1.42
2023-02-01T04:27:34.033Z,3.28
2023-02-01T04:30:00.525Z,1.02
2023-02-01T04:32:27.003Z,2.13
2023-02-01T04:34:53.485Z,1.75
2023-02-01T04:37:20.036Z,1.08
2023-02-01T04:39:46.487Z,2.33
2023-02-01T04:42:13.356Z,2.10
2023-02-01T04:44:42.816Z,4.35
2023-02-01T04:47:10.545Z,3.22
2023-02-01T04:49:37.075Z,0.70
2023-02-01T04:52:03.722Z,0.50
2023-02-01T04:54:30.339Z,0.52
2023-02-01T04:56:56.813Z,0.40
2023-02-01T04:59:23.312Z,1.35
2023-02-01T05:01:49.823Z,1.05
2023-02-01T05:04:16.317Z,4.15
2023-02-01T05:06:42.775Z,2.25
2023-02-01T05:09:09.315Z,1.05
2023-02-01T05:11:54.359Z,6.28
2023-02-01T05:14:20.857Z,4.43
2023-02-01T05:16:47.345Z,4.72
2023-02-01T05:19:13.875Z,4.35
2023-02-01T05:21:40.331Z,8.18
2023-02-01T05:24:11.541Z,5.22
2023-02-01T05:26:38.315Z,4.00
2023-02-01T05:29:05.709Z,5.05
2023-02-01T05:31:32.321Z,2.58
2023-02-01T05:33:58.924Z,4.63
2023-02-01T05:36:25.454Z,4.25
2023-02-01T05:38:51.964Z,6.90
2023-02-01T05:41:18.422Z,3.97
2023-02-01T05:43:45.059Z,2.83
2023-02-01T05:46:13.791Z,7.90
2023-02-01T05:48:42.903Z,12.60
2023-02-01T05:51:09.737Z,5.55
2023-02-01T05:53:36.345Z,7.38
2023-02-01T05:56:03.253Z,2.95
2023-02-01T05:58:32.791Z,7.03
2023-02-01T06:01:02.728Z,8.30
2023-02-01T06:03:29.330Z,8.60
2023-02-01T06:05:56.010Z,8.07
2023-02-01T06:08:22.645Z,6.82
2023-02-01T06:10:49.105Z,8.27
2023-02-01T06:13:15.560Z,12.75
2023-02-01T06:15:43.534Z,13.85
2023-02-01T06:18:10.117Z,7.40
2023-02-01T06:20:36.629Z,7.90
2023-02-01T06:23:03.113Z,11.63
2023-02-01T06:25:29.642Z,7.53
2023-02-01T06:27:56.179Z,7.32
2023-02-01T06:30:22.889Z,8.65
2023-02-01T06:32:54.680Z,11.68
2023-02-01T06:35:21.383Z,9.75
2023-02-01T06:37:48.041Z,12.15
2023-02-01T06:40:14.596Z,9.40
2023-02-01T06:42:41.142Z,13.02
2023-02-01T06:45:08.273Z,10.10
2023-02-01T06:47:34.798Z,15.40
2023-02-01T06:50:01.253Z,9.35
2023-02-01T06:52:27.795Z,9.57
2023-02-01T06:54:54.263Z,9.10
2023-02-01T06:57:20.717Z,8.68
2023-02-01T06:59:47.199Z,5.95
2023-02-01T07:02:13.721Z,13.20
2023-02-01T07:04:40.349Z,13.57
2023-02-01T07:07:06.920Z,11.80
2023-02-01T07:09:33.460Z,10.23
2023-02-01T07:11:59.950Z,17.58
2023-02-01T07:14:26.412Z,10.88
2023-02-01T07:16:52.921Z,7.65
2023-02-01T07:19:19.367Z,6.72
2023-02-01T07:21:45.826Z,12.50
2023-02-01T07:24:12.374Z,9.70
2023-02-01T07:26:38.871Z,10.80
2023-02-01T07:29:05.420Z,11.02
2023-02-01T07:31:31.994Z,9.82
2023-02-01T07:33:59.302Z,10.48
2023-02-01T07:36:25.865Z,12.32
2023-02-01T07:38:56.098Z,11.65
2023-02-01T07:41:22.926Z,11.73
2023-02-01T07:43:51.668Z,15.75
2023-02-01T07:46:18.455Z,8.18
2023-02-01T07:48:45.021Z,11.27
2023-02-01T07:51:13.261Z,11.85
2023-02-01T07:53:39.798Z,16.30
2023-02-01T07:56:11.622Z,7.60
2023-02-01T07:58:38.101Z,7.00
2023-02-01T08:01:23.916Z,5.60
2023-02-01T08:03:58.065Z,10.02
2023-02-01T08:06:25.738Z,11.45
2023-02-01T08:08:52.668Z,6.15
2023-02-01T08:11:20.264Z,9.07
2023-02-01T08:13:46.837Z,11.45
2023-02-01T08:16:14.302Z,8.07
2023-02-01T08:18:40.896Z,7.97
2023-02-01T08:21:08.685Z,10.93
2023-02-01T08:23:35.991Z,13.80
2023-02-01T08:26:22.764Z,10.10
2023-02-01T08:28:51.294Z,7.28
2023-02-01T08:31:20.221Z,6.93
2023-02-01T08:33:49.656Z,8.35
2023-02-01T08:36:16.135Z,13.98
2023-02-01T08:38:42.668Z,13.48
2023-02-01T08:41:10.217Z,13.45
2023-02-01T08:43:36.754Z,8.63
2023-02-01T08:46:04.257Z,8.40
2023-02-01T08:48:30.810Z,14.05
2023-02-01T08:50:57.277Z,14.32
2023-02-01T08:53:23.886Z,8.95
2023-02-01T08:55:50.438Z,15.10
2023-02-01T08:58:18.095Z,6.30
2023-02-01T09:00:49.161Z,6.45
2023-02-01T09:03:16.195Z,12.18
2023-02-01T09:05:49.476Z,13.18
2023-02-01T09:08:16.779Z,5.93
2023-02-01T09:10:43.695Z,10.27
2023-02-01T09:13:10.339Z,12.20
2023-02-01T09:15:37.885Z,6.93
2023-02-01T09:18:04.478Z,10.48
2023-02-01T09:20:31.117Z,9.93
2023-02-01T09:22:57.692Z,6.97
2023-02-01T09:25:24.376Z,13.88
2023-02-01T09:27:51.036Z,18.42
2023-02-01T09:30:17.654Z,7.63
2023-02-01T09:32:44.119Z,6.80
2023-02-01T09:35:10.647Z,11.95
2023-02-01T09:37:38.527Z,11.70
2023-02-01T09:40:05.468Z,8.70
2023-02-01T09:42:43.994Z,15.20
2023-02-01T09:45:19.665Z,10.18
2023-02-01T09:47:52.372Z,10.57
2023-02-01T09:50:22.581Z,9.18
2023-02-01T09:53:09.543Z,13.25
2023-02-01T09:55:39.509Z,10.63
2023-02-01T09:58:17.687Z,6.60
2023-02-01T10:00:48.160Z,6.82
2023-02-01T10:03:14.752Z,5.40
2023-02-01T10:05:47.485Z,8.93
2023-02-01T10:08:24.351Z,13.02
2023-02-01T10:10:51.203Z,5.85
2023-02-01T10:13:17.660Z,9.57
2023-02-01T10:15:44.142Z,8.10
2023-02-01T10:18:23.418Z,9.05
2023-02-01T10:21:01.892Z,8.00
2023-02-01T10:23:34.342Z,9.70
2023-02-01T10:26:01.190Z,6.40
2023-02-01T10:28:27.673Z,7.25
2023-02-01T10:30:58.060Z,9.30
2023-02-01T10:33:25.783Z,11.00
2023-02-01T10:35:54.664Z,7.03
2023-02-01T10:38:31.168Z,8.23
2023-02-01T10:41:03.191Z,11.23
2023-02-01T10:43:29.766Z,9.32
2023-02-01T10:45:56.272Z,8.75
2023-02-01T10:48:23.150Z,6.95
2023-02-01T10:50:54.814Z,8.93
2023-02-01T10:53:26.003Z,12.45
2023-02-01T10:55:53.816Z,9.88
2023-02-01T10:58:32.511Z,7.72
2023-02-01T11:01:04.321Z,6.25
2023-02-01T11:03:46.405Z,11.77
2023-02-01T11:06:30.183Z,3.88
2023-02-01T11:08:58.318Z,6.95
2023-02-01T11:11:25.086Z,8.15
2023-02-01T11:13:55.807Z,8.30
2023-02-01T11:16:22.318Z,4.88
2023-02-01T11:18:54.152Z,5.07
2023-02-01T11:21:21.719Z,8.70
2023-02-01T11:23:48.320Z,8.77
2023-02-01T11:26:24.383Z,10.50
2023-02-01T11:29:14.503Z,7.05
2023-02-01T11:31:43.021Z,7.78
2023-02-01T11:34:09.510Z,5.57
2023-02-01T11:36:38.043Z,10.68
2023-02-01T11:39:10.413Z,8.43
2023-02-01T11:41:41.998Z,8.93
2023-02-01T11:44:23.121Z,8.27
2023-02-01T11:46:49.904Z,4.82
2023-02-01T11:49:22.647Z,5.45
2023-02-01T11:51:55.776Z,4.07
2023-02-01T11:54:25.492Z,4.45
2023-02-01T11:57:00.286Z,8.05
2023-02-01T11:59:31.025Z,5.65
2023-02-01T12:02:03.410Z,10.70
2023-02-01T12:04:48.762Z,6.97
2023-02-01T12:07:21.475Z,10.38
2023-02-01T12:09:50.937Z,4.88
2023-02-01T12:12:20.419Z,7.82
2023-02-01T12:14:46.933Z,9.77
2023-02-01T12:17:13.417Z,8.65
2023-02-01T12:19:56.032Z,9.05
2023-02-01T12:22:22.596Z,9.73
2023-02-01T12:25:04.326Z,8.10
2023-02-01T12:27:42.032Z,11.48
2023-02-01T12:30:08.522Z,8.52
2023-02-01T12:32:44.038Z,7.30
2023-02-01T12:35:29.495Z,8.65
2023-02-01T12:38:18.521Z,14.57
2023-02-01T12:40:47.885Z,6.53
2023-02-01T12:43:22.898Z,4.57
2023-02-01T12:45:55.580Z,9.73
2023-02-01T12:48:28.150Z,6.57
2023-02-01T12:50:56.644Z,8.15
2023-02-01T12:53:38.765Z,7.68
2023-02-01T12:56:11.128Z,6.50
2023-02-01T12:58:49.344Z,7.47
2023-02-01T13:01:30.462Z,8.55
2023-02-01T13:04:07.129Z,9.52
2023-02-01T13:06:44.840Z,9.80
2023-02-01T13:09:17.364Z,7.03
2023-02-01T13:11:46.216Z,7.45
2023-02-01T13:14:18.875Z,7.22
2023-02-01T13:16:46.541Z,6.72
2023-02-01T13:19:21.769Z,8.20
2023-02-01T13:21:51.826Z,9.70
2023-02-01T13:24:21.007Z,4.55
2023-02-01T13:26:47.558Z,8.90
2023-02-01T13:29:14.369Z,4.82
2023-02-01T13:31:44.036Z,8.40
2023-02-01T13:34:12.380Z,9.88
2023-02-01T13:36:39.124Z,5.18
2023-02-01T13:39:19.751Z,10.27
2023-02-01T13:41:54.528Z,11.10
2023-02-01T13:44:27.114Z,7.88
2023-02-01T13:46:56.148Z,9.32
2023-02-01T13:49:24.616Z,6.65
2023-02-01T13:51:52.880Z,6.20
2023-02-01T13:54:30.375Z,7.22
2023-02-01T13:56:59.944Z,11.90
2023-02-01T13:59:41.501Z,10.73
2023-02-01T14:02:34.155Z,10.85
2023-02-01T14:05:01.647Z,5.63
2023-02-01T14:07:28.203Z,8.13
2023-02-01T14:09:54.801Z,7.15
2023-02-01T14:12:40.087Z,7.80
2023-02-01T14:15:24.524Z,7.68
2023-02-01T14:17:51.558Z,10.70
2023-02-01T14:20:36.836Z,9.60
2023-02-01T14:23:04.485Z,7.47
2023-02-01T14:25:34.451Z,9.40
2023-02-01T14:28:02.177Z,7.82
2023-02-01T14:30:28.695Z,7.53
2023-02-01T14:32:55.261Z,8.48
2023-02-01T14:35:26.348Z,4.18
2023-02-01T14:37:54.603Z,9.55
2023-02-01T14:40:24.423Z,9.32
2023-02-01T14:42:54.944Z,8.75
2023-02-01T14:45:25.289Z,9.10
2023-02-01T14:47:55.727Z,5.80
2023-02-01T14:50:37.911Z,7.93
2023-02-01T14:53:07.408Z,10.35
2023-02-01T14:55:36.795Z,7.18
2023-02-01T14:58:06.379Z,9.05
2023-02-01T15:00:32.986Z,10.18
2023-02-01T15:03:22.717Z,6.22
2023-02-01T15:05:55.668Z,7.43
2023-02-01T15:08:25.866Z,7.20
2023-02-01T15:10:53.354Z,6.85
2023-02-01T15:13:23.962Z,11.18
2023-02-01T15:16:09.303Z,10.45
2023-02-01T15:18:35.874Z,9.23
2023-02-01T15:21:10.200Z,10.55
2023-02-01T15:23:51.863Z,9.65
2023-02-01T15:26:28.014Z,13.15
2023-02-01T15:28:54.605Z,9.38
2023-02-01T15:31:38.335Z,7.47
2023-02-01T15:34:05.170Z,10.00
2023-02-01T15:36:32.938Z,4.82
2023-02-01T15:39:23.878Z,9.50
2023-02-01T15:41:51.602Z,7.60
2023-02-01T15:44:53.782Z,13.00
2023-02-01T15:47:24.269Z,7.35
2023-02-01T15:49:55.485Z,8.95
2023-02-01T15:52:28.914Z,10.57
2023-02-01T15:54:57.880Z,8.98
2023-02-01T15:57:31.844Z,12.07
2023-02-01T16:00:00.004Z,9.57
2023-02-01T16:02:26.696Z,8.85
2023-02-01T16:04:54.961Z,6.55
2023-02-01T16:07:26.152Z,11.65
2023-02-01T16:09:55.247Z,11.52
2023-02-01T16:12:37.005Z,9.00
2023-02-01T16:15:03.672Z,6.85
2023-02-01T16:17:30.165Z,9.07
2023-02-01T16:19:58.302Z,11.10
2023-02-01T16:22:25.141Z,9.00
2023-02-01T16:24:51.642Z,5.65
2023-02-01T16:27:18.185Z,12.00
2023-02-01T16:29:44.700Z,17.90
2023-02-01T16:32:21.260Z,8.23
2023-02-01T16:34:48.156Z,10.63
2023-02-01T16:37:16.830Z,10.43
2023-02-01T16:39:43.337Z,11.50
2023-02-01T16:42:13.296Z,9.20
2023-02-01T16:44:40.273Z,10.95
2023-02-01T16:47:12.487Z,7.88
2023-02-01T16:49:41.433Z,13.13
2023-02-01T16:52:12.765Z,7.22
2023-02-01T16:54:39.262Z,6.85
2023-02-01T16:57:05.790Z,8.07
2023-02-01T16:59:32.303Z,9.48
2023-02-01T17:01:58.838Z,14.93
2023-02-01T17:04:25.437Z,8.18
2023-02-01T17:06:51.924Z,8.75
2023-02-01T17:09:18.435Z,11.63
2023-02-01T17:11:44.892Z,9.80
2023-02-01T17:14:14.408Z,8.93
2023-02-01T17:16:41.184Z,6.65
2023-02-01T17:19:12.818Z,4.25
2023-02-01T17:21:43.892Z,5.57
2023-02-01T17:24:15.203Z,7.25
2023-02-01T17:26:42.449Z,6.97
2023-02-01T17:29:09.070Z,6.35
2023-02-01T17:31:37.957Z,6.10
2023-02-01T17:34:04.592Z,8.75
2023-02-01T17:36:31.083Z,5.50
2023-02-01T17:39:05.616Z,7.38
2023-02-01T17:41:33.212Z,4.75
2023-02-01T17:43:59.723Z,7.55
2023-02-01T17:46:27.439Z,9.05
2023-02-01T17:48:54.709Z,4.95
2023-02-01T17:51:27.317Z,10.55
2023-02-01T17:53:54.101Z,8.30
2023-02-01T17:56:24.783Z,9.73
2023-02-01T17:58:51.599Z,5.00
2023-02-01T18:01:22.282Z,3.95
2023-02-01T18:03:48.993Z,6.50
2023-02-01T18:06:16.726Z,8.68
2023-02-01T18:08:43.289Z,17.00
2023-02-01T18:11:20.341Z,14.88
2023-02-01T18:13:47.353Z,36.65
2023-02-01T18:16:27.950Z,19.08
2023-02-01T18:18:54.607Z,11.68
2023-02-01T18:21:22.384Z,13.60
2023-02-01T18:23:49.642Z,14.23
2023-02-01T18:26:17.329Z,9.73
2023-02-01T18:28:44.319Z,10.68
2023-02-01T18:31:22.430Z,11.80
2023-02-01T18:33:49.788Z,15.63
2023-02-01T18:36:16.494Z,8.50
2023-02-01T18:38:43.192Z,4.70
2023-02-01T18:41:23.367Z,6.78
2023-02-01T18:43:50.563Z,6.22
2023-02-01T18:46:17.295Z,9.27
2023-02-01T18:48:44.242Z,10.07
2023-02-01T18:51:17.482Z,7.55
2023-02-01T18:53:44.127Z,4.05
2023-02-01T18:56:11.878Z,7.53
2023-02-01T18:58:38.575Z,8.68
2023-02-01T19:01:06.382Z,6.47
2023-02-01T19:03:32.905Z,7.57
2023-02-01T19:06:07.976Z,8.57
2023-02-01T19:08:34.835Z,6.65
2023-02-01T19:11:05.060Z,5.22
2023-02-01T19:13:31.977Z,6.38
2023-02-01T19:15:58.492Z,3.67
2023-02-01T19:18:25.089Z,6.03
2023-02-01T19:20:51.774Z,7.55
2023-02-01T19:23:18.814Z,5.28
2023-02-01T19:25:46.242Z,8.45
2023-02-01T19:28:13.166Z,7.38
2023-02-01T19:30:40.206Z,3.10
2023-02-01T19:33:06.715Z,7.13
2023-02-01T19:35:33.237Z,2.67
2023-02-01T19:37:59.695Z,6.70
2023-02-01T19:40:26.678Z,7.65
2023-02-01T19:42:53.359Z,7.00
2023-02-01T19:45:20.128Z,6.25
2023-02-01T19:47:46.826Z,7.93
2023-02-01T19:50:20.577Z,8.13
2023-02-01T19:55:13.664Z,4.53
2023-02-01T19:57:40.199Z,7.22
2023-02-01T20:00:08.372Z,7.22
2023-02-01T20:02:33.996Z,10.55
2023-02-01T20:05:00.505Z,10.93
2023-02-01T20:07:27.048Z,17.90
2023-02-01T20:09:53.573Z,15.07
2023-02-01T20:12:20.076Z,85.00
2023-02-01T20:14:46.822Z,73.72
2023-02-01T20:17:14.908Z,51.80
2023-02-01T20:19:41.444Z,63.13
2023-02-01T20:22:07.925Z,53.28
2023-02-01T20:24:34.371Z,29.83
2023-02-01T20:27:01.751Z,19.58
2023-02-01T20:29:28.322Z,15.27
2023-02-01T20:31:54.819Z,16.42
2023-02-01T20:34:22.873Z,13.48
2023-02-01T20:36:49.839Z,11.43
2023-02-01T20:39:17.954Z,6.53
2023-02-01T20:41:44.838Z,11.35
2023-02-01T20:44:11.695Z,12.30
2023-02-01T20:46:41.727Z,8.80
2023-02-01T20:49:08.936Z,8.30
2023-02-01T20:51:35.798Z,5.70
2023-02-01T20:54:03.526Z,6.95
2023-02-01T20:56:31.386Z,7.82
2023-02-01T20:59:03.339Z,4.32
2023-02-01T21:01:30.794Z,4.28
2023-02-01T21:03:57.417Z,6.95
2023-02-01T21:06:24.253Z,4.13
2023-02-01T21:08:50.719Z,4.43
2023-02-01T21:11:17.257Z,2.60
2023-02-01T21:13:50.564Z,5.47
2023-02-01T21:16:18.042Z,8.63
2023-02-01T21:18:44.527Z,28.75
2023-02-01T21:21:13.395Z,10.23
2023-02-01T21:23:45.850Z,8.77
2023-02-01T21:26:13.465Z,14.90
2023-02-01T21:28:40.330Z,8.38
2023-02-01T21:31:07.243Z,17.67
2023-02-01T21:33:33.819Z,19.13
2023-02-01T21:36:00.583Z,37.40
2023-02-01T21:38:27.850Z,9.32
2023-02-01T21:41:12.758Z,4.85
2023-02-01T21:43:39.546Z,4.38
2023-02-01T21:46:06.247Z,21.27
2023-02-01T21:49:04.665Z,2.90
2023-02-01T21:51:19.610Z,2.45
2023-02-01T21:53:46.752Z,3.03
2023-02-01T21:56:13.209Z,6.00
2023-02-01T21:58:39.664Z,2.00
2023-02-01T22:01:06.202Z,4.20
2023-02-01T22:03:32.748Z,2.58
2023-02-01T22:05:59.212Z,4.32
2023-02-01T22:08:25.723Z,1.33
2023-02-01T22:10:52.176Z,1.63
2023-02-01T22:13:18.714Z,4.13
2023-02-01T22:15:45.219Z,4.65
2023-02-01T22:18:11.692Z,5.80
2023-02-01T22:20:38.180Z,3.38
2023-02-01T22:23:04.716Z,1.50
2023-02-01T22:25:31.944Z,4.68
2023-02-01T22:28:31.019Z,4.03
2023-02-01T22:30:45.020Z,4.53
2023-02-01T22:33:13.276Z,4.13
2023-02-01T22:35:39.980Z,4.05
2023-02-01T22:38:06.458Z,2.53
2023-02-01T22:40:32.925Z,1.52
2023-02-01T22:42:59.829Z,6.45
2023-02-01T22:45:26.449Z,2.55
2023-02-01T22:47:53.135Z,0.82
2023-02-01T22:50:19.607Z,3.70
2023-02-01T22:52:46.151Z,33.45
2023-02-01T22:55:12.602Z,4.63
2023-02-01T22:57:39.097Z,10.32
2023-02-01T23:00:06.735Z,6.32
2023-02-01T23:02:33.240Z,3.97
2023-02-01T23:04:59.762Z,2.17
2023-02-01T23:07:26.227Z,2.70
2023-02-01T23:09:53.614Z,4.43
2023-02-01T23:12:20.089Z,1.25
2023-02-01T23:15:05.448Z,4.80
2023-02-01T23:17:32.607Z,1.52
2023-02-01T23:19:59.288Z,2.42
2023-02-01T23:22:25.902Z,1.15
2023-02-01T23:24:52.369Z,1.17
2023-02-01T23:27:18.835Z,1.25
2023-02-01T23:29:45.307Z,1.67
2023-02-01T23:32:11.773Z,3.20
2023-02-01T23:34:40.538Z,2.25
2023-02-01T23:37:06.990Z,2.80
2023-02-01T23:39:33.503Z,3.92
2023-02-01T23:42:03.393Z,1.55
2023-02-01T23:44:30.018Z,2.33
2023-02-01T23:46:56.500Z,1.50
2023-02-01T23:49:22.983Z,2.17
2023-02-01T23:51:52.965Z,1.75
2023-02-01T23:54:23.266Z,1.25
2023-02-01T23:56:49.878Z,0.80
2023-02-01T23:59:20.534Z,0.75
